sensor_id;sensor_type;location;lat;lon;timestamp;temperature;humidity
5218;DHT22;26539;51.064;6.346;2022-07-01T00:00:01;16.00;1.00
5218;DHT22;26539;51.064;6.346;2022-07-01T00:02:26;16.00;1.00
5218;DHT22;26539;51.064;6.346;2022-07-01T00:04:52;16.00;1.00
5218;DHT22;26539;51.064;6.346;2022-07-01T00:07:18;15.90;1.00
5218;DHT22;26539;51.064;6.346;2022-07-01T00:09:44;15.90;1.00
5218;DHT22;26539;51.064;6.346;2022-07-01T00:12:09;15.90;1.00
5218;DHT22;26539;51.064;6.346;2022-07-01T00:14:35;16.00;1.00
5218;DHT22;26539;51.064;6.346;2022-07-01T00:17:01;16.00;1.00
5218;DHT22;26539;51.064;6.346;2022-07-01T00:19:27;16.00;1.00
5218;DHT22;26539;51.064;6.346;2022-07-01T00:21:53;16.00;1.00
5218;DHT22;26539;51.064;6.346;2022-07-01T00:24:19;16.00;1.00
5218;DHT22;26539;51.064;6.346;2022-07-01T00:26:44;16.00;1.00
5218;DHT22;26539;51.064;6.346;2022-07-01T00:29:10;16.00;1.00
5218;DHT22;26539;51.064;6.346;2022-07-01T00:31:35;16.00;1.00
5218;DHT22;26539;51.064;6.346;2022-07-01T00:34:02;15.90;1.00
5218;DHT22;26539;51.064;6.346;2022-07-01T00:36:27;15.90;1.00
5218;DHT22;26539;51.064;6.346;2022-07-01T00:38:53;15.90;1.00
5218;DHT22;26539;51.064;6.346;2022-07-01T00:41:19;15.90;1.00
5218;DHT22;26539;51.064;6.346;2022-07-01T00:43:44;15.90;1.00
5218;DHT22;26539;51.064;6.346;2022-07-01T00:46:10;15.80;1.00
5218;DHT22;26539;51.064;6.346;2022-07-01T00:48:36;15.80;1.00
5218;DHT22;26539;51.064;6.346;2022-07-01T00:51:02;15.80;1.00
5218;DHT22;26539;51.064;6.346;2022-07-01T00:53:28;15.80;1.00
5218;DHT22;26539;51.064;6.346;2022-07-01T00:55:55;15.70;1.00
5218;DHT22;26539;51.064;6.346;2022-07-01T00:58:21;15.70;1.00
5218;DHT22;26539;51.064;6.346;2022-07-01T01:00:46;15.70;1.00
5218;DHT22;26539;51.064;6.346;2022-07-01T01:03:12;15.70;1.00
5218;DHT22;26539;51.064;6.346;2022-07-01T01:05:38;15.60;1.00
5218;DHT22;26539;51.064;6.346;2022-07-01T01:08:05;15.60;1.00
5218;DHT22;26539;51.064;6.346;2022-07-01T01:10:33;15.60;1.00
5218;DHT22;26539;51.064;6.346;2022-07-01T01:13:00;15.60;1.00
5218;DHT22;26539;51.064;6.346;2022-07-01T01:15:26;15.60;1.00
5218;DHT22;26539;51.064;6.346;2022-07-01T01:17:53;15.60;1.00
5218;DHT22;26539;51.064;6.346;2022-07-01T01:20:19;15.60;1.00
5218;DHT22;26539;51.064;6.346;2022-07-01T01:22:46;15.60;1.00
5218;DHT22;26539;51.064;6.346;2022-07-01T01:25:15;15.60;1.00
5218;DHT22;26539;51.064;6.346;2022-07-01T01:27:41;15.50;1.00
5218;DHT22;26539;51.064;6.346;2022-07-01T01:30:09;15.50;1.00
5218;DHT22;26539;51.064;6.346;2022-07-01T01:32:35;15.50;1.00
5218;DHT22;26539;51.064;6.346;2022-07-01T01:35:02;15.50;1.00
5218;DHT22;26539;51.064;6.346;2022-07-01T01:37:27;15.40;1.00
5218;DHT22;26539;51.064;6.346;2022-07-01T01:39:54;15.40;1.00
5218;DHT22;26539;51.064;6.346;2022-07-01T01:42:19;15.30;1.00
5218;DHT22;26539;51.064;6.346;2022-07-01T01:44:45;15.30;1.00
5218;DHT22;26539;51.064;6.346;2022-07-01T01:47:11;15.30;1.00
5218;DHT22;26539;51.064;6.346;2022-07-01T01:49:36;15.30;1.00
5218;DHT22;26539;51.064;6.346;2022-07-01T01:52:02;15.30;1.00
5218;DHT22;26539;51.064;6.346;2022-07-01T01:54:28;15.30;1.00
5218;DHT22;26539;51.064;6.346;2022-07-01T01:56:54;15.30;1.00
5218;DHT22;26539;51.064;6.346;2022-07-01T01:59:19;15.30;1.00
5218;DHT22;26539;51.064;6.346;2022-07-01T02:01:45;15.30;1.00
5218;DHT22;26539;51.064;6.346;2022-07-01T02:04:10;15.30;1.00
5218;DHT22;26539;51.064;6.346;2022-07-01T02:06:36;15.30;1.00
5218;DHT22;26539;51.064;6.346;2022-07-01T02:09:02;15.20;1.00
5218;DHT22;26539;51.064;6.346;2022-07-01T02:11:28;15.20;1.00
5218;DHT22;26539;51.064;6.346;2022-07-01T02:13:54;15.20;1.00
5218;DHT22;26539;51.064;6.346;2022-07-01T02:16:19;15.20;1.00
5218;DHT22;26539;51.064;6.346;2022-07-01T02:18:45;15.20;1.00
5218;DHT22;26539;51.064;6.346;2022-07-01T02:21:10;15.20;1.00
5218;DHT22;26539;51.064;6.346;2022-07-01T02:23:36;15.20;1.00
5218;DHT22;26539;51.064;6.346;2022-07-01T02:26:02;15.20;1.00
5218;DHT22;26539;51.064;6.346;2022-07-01T02:28:27;15.20;1.00
5218;DHT22;26539;51.064;6.346;2022-07-01T02:30:53;15.10;1.00
5218;DHT22;26539;51.064;6.346;2022-07-01T02:33:19;15.10;1.00
5218;DHT22;26539;51.064;6.346;2022-07-01T02:35:44;15.10;1.00
5218;DHT22;26539;51.064;6.346;2022-07-01T02:38:10;15.10;1.00
5218;DHT22;26539;51.064;6.346;2022-07-01T02:40:36;15.10;1.00
5218;DHT22;26539;51.064;6.346;2022-07-01T02:43:06;15.00;1.00
5218;DHT22;26539;51.064;6.346;2022-07-01T02:45:31;15.00;1.00
5218;DHT22;26539;51.064;6.346;2022-07-01T02:47:57;15.00;1.00
5218;DHT22;26539;51.064;6.346;2022-07-01T02:50:22;15.00;1.00
5218;DHT22;26539;51.064;6.346;2022-07-01T02:52:48;15.00;1.00
5218;DHT22;26539;51.064;6.346;2022-07-01T02:55:14;15.00;1.00
5218;DHT22;26539;51.064;6.346;2022-07-01T02:57:41;15.00;1.00
5218;DHT22;26539;51.064;6.346;2022-07-01T03:00:10;15.00;1.00
5218;DHT22;26539;51.064;6.346;2022-07-01T03:02:36;14.90;1.00
5218;DHT22;26539;51.064;6.346;2022-07-01T03:05:03;14.90;1.00
5218;DHT22;26539;51.064;6.346;2022-07-01T03:07:29;14.90;1.00
5218;DHT22;26539;51.064;6.346;2022-07-01T03:09:55;14.90;1.00
5218;DHT22;26539;51.064;6.346;2022-07-01T03:12:20;14.90;1.00
5218;DHT22;26539;51.064;6.346;2022-07-01T03:14:56;14.90;1.00
5218;DHT22;26539;51.064;6.346;2022-07-01T03:17:27;14.90;1.00
5218;DHT22;26539;51.064;6.346;2022-07-01T03:19:54;14.90;1.00
5218;DHT22;26539;51.064;6.346;2022-07-01T03:22:21;14.90;1.00
5218;DHT22;26539;51.064;6.346;2022-07-01T03:24:48;14.90;1.00
5218;DHT22;26539;51.064;6.346;2022-07-01T03:27:15;15.00;1.00
5218;DHT22;26539;51.064;6.346;2022-07-01T03:29:41;15.00;1.00
5218;DHT22;26539;51.064;6.346;2022-07-01T03:32:08;15.00;1.00
5218;DHT22;26539;51.064;6.346;2022-07-01T03:34:38;15.10;1.00
5218;DHT22;26539;51.064;6.346;2022-07-01T03:37:05;15.10;1.00
5218;DHT22;26539;51.064;6.346;2022-07-01T03:39:31;15.10;1.00
5218;DHT22;26539;51.064;6.346;2022-07-01T03:41:56;15.20;1.00
5218;DHT22;26539;51.064;6.346;2022-07-01T03:44:22;15.20;1.00
5218;DHT22;26539;51.064;6.346;2022-07-01T03:46:47;15.20;1.00
5218;DHT22;26539;51.064;6.346;2022-07-01T03:49:13;15.20;1.00
5218;DHT22;26539;51.064;6.346;2022-07-01T03:51:38;15.20;1.00
5218;DHT22;26539;51.064;6.346;2022-07-01T03:54:04;15.20;1.00
5218;DHT22;26539;51.064;6.346;2022-07-01T03:56:48;15.30;1.00
5218;DHT22;26539;51.064;6.346;2022-07-01T03:59:13;15.30;1.00
5218;DHT22;26539;51.064;6.346;2022-07-01T04:01:39;15.30;1.00
5218;DHT22;26539;51.064;6.346;2022-07-01T04:04:04;15.40;1.00
5218;DHT22;26539;51.064;6.346;2022-07-01T04:06:30;15.40;1.00
5218;DHT22;26539;51.064;6.346;2022-07-01T04:08:56;15.40;1.00
5218;DHT22;26539;51.064;6.346;2022-07-01T04:11:23;15.50;1.00
5218;DHT22;26539;51.064;6.346;2022-07-01T04:13:48;15.50;1.00
5218;DHT22;26539;51.064;6.346;2022-07-01T04:16:18;15.50;1.00
5218;DHT22;26539;51.064;6.346;2022-07-01T04:18:44;15.50;1.00
5218;DHT22;26539;51.064;6.346;2022-07-01T04:21:10;15.50;1.00
5218;DHT22;26539;51.064;6.346;2022-07-01T04:23:54;15.60;1.00
5218;DHT22;26539;51.064;6.346;2022-07-01T04:26:22;15.60;1.00
5218;DHT22;26539;51.064;6.346;2022-07-01T04:28:48;15.60;1.00
5218;DHT22;26539;51.064;6.346;2022-07-01T04:31:13;15.60;1.00
5218;DHT22;26539;51.064;6.346;2022-07-01T04:33:39;15.60;1.00
5218;DHT22;26539;51.064;6.346;2022-07-01T04:36:05;15.70;1.00
5218;DHT22;26539;51.064;6.346;2022-07-01T04:38:30;15.70;1.00
5218;DHT22;26539;51.064;6.346;2022-07-01T04:40:56;15.70;1.00
5218;DHT22;26539;51.064;6.346;2022-07-01T04:43:40;15.70;1.00
5218;DHT22;26539;51.064;6.346;2022-07-01T04:46:06;15.70;1.00
5218;DHT22;26539;51.064;6.346;2022-07-01T04:48:32;15.80;1.00
5218;DHT22;26539;51.064;6.346;2022-07-01T04:50:58;15.80;1.00
5218;DHT22;26539;51.064;6.346;2022-07-01T04:53:24;15.80;1.00
5218;DHT22;26539;51.064;6.346;2022-07-01T04:55:49;15.80;1.00
5218;DHT22;26539;51.064;6.346;2022-07-01T04:58:15;15.80;1.00
5218;DHT22;26539;51.064;6.346;2022-07-01T05:00:40;15.90;99.90
5218;DHT22;26539;51.064;6.346;2022-07-01T05:03:06;15.90;99.90
5218;DHT22;26539;51.064;6.346;2022-07-01T05:05:31;15.90;99.90
5218;DHT22;26539;51.064;6.346;2022-07-01T05:07:57;15.90;99.90
5218;DHT22;26539;51.064;6.346;2022-07-01T05:10:23;16.00;99.90
5218;DHT22;26539;51.064;6.346;2022-07-01T05:12:49;16.10;99.90
5218;DHT22;26539;51.064;6.346;2022-07-01T05:15:14;16.10;99.90
5218;DHT22;26539;51.064;6.346;2022-07-01T05:17:43;16.10;99.90
5218;DHT22;26539;51.064;6.346;2022-07-01T05:20:27;16.20;99.90
5218;DHT22;26539;51.064;6.346;2022-07-01T05:23:11;16.20;99.90
5218;DHT22;26539;51.064;6.346;2022-07-01T05:25:36;16.30;99.90
5218;DHT22;26539;51.064;6.346;2022-07-01T05:28:02;16.30;99.90
5218;DHT22;26539;51.064;6.346;2022-07-01T05:30:28;16.30;99.90
5218;DHT22;26539;51.064;6.346;2022-07-01T05:32:53;16.40;99.90
5218;DHT22;26539;51.064;6.346;2022-07-01T05:35:19;16.40;99.90
5218;DHT22;26539;51.064;6.346;2022-07-01T05:37:44;16.40;99.90
5218;DHT22;26539;51.064;6.346;2022-07-01T05:40:10;16.40;94.80
5218;DHT22;26539;51.064;6.346;2022-07-01T05:42:36;16.50;78.20
5218;DHT22;26539;51.064;6.346;2022-07-01T05:45:02;16.50;20.50
5218;DHT22;26539;51.064;6.346;2022-07-01T05:47:28;16.60;1.00
5218;DHT22;26539;51.064;6.346;2022-07-01T05:49:53;16.60;1.00
5218;DHT22;26539;51.064;6.346;2022-07-01T05:52:19;16.60;1.00
5218;DHT22;26539;51.064;6.346;2022-07-01T05:54:45;16.70;1.00
5218;DHT22;26539;51.064;6.346;2022-07-01T05:57:10;16.80;1.00
5218;DHT22;26539;51.064;6.346;2022-07-01T05:59:36;16.90;1.00
5218;DHT22;26539;51.064;6.346;2022-07-01T06:02:02;17.10;99.90
5218;DHT22;26539;51.064;6.346;2022-07-01T06:04:27;17.40;99.90
5218;DHT22;26539;51.064;6.346;2022-07-01T06:06:53;17.60;99.90
5218;DHT22;26539;51.064;6.346;2022-07-01T06:09:19;17.80;1.00
5218;DHT22;26539;51.064;6.346;2022-07-01T06:11:44;17.90;1.00
5218;DHT22;26539;51.064;6.346;2022-07-01T06:14:11;18.00;99.90
5218;DHT22;26539;51.064;6.346;2022-07-01T06:16:37;18.00;22.10
5218;DHT22;26539;51.064;6.346;2022-07-01T06:19:03;18.00;99.90
5218;DHT22;26539;51.064;6.346;2022-07-01T06:21:29;18.10;1.00
5218;DHT22;26539;51.064;6.346;2022-07-01T06:23:55;18.00;99.90
5218;DHT22;26539;51.064;6.346;2022-07-01T06:26:21;17.90;1.00
5218;DHT22;26539;51.064;6.346;2022-07-01T06:28:46;17.80;1.00
5218;DHT22;26539;51.064;6.346;2022-07-01T06:31:12;17.70;1.00
5218;DHT22;26539;51.064;6.346;2022-07-01T06:33:37;17.70;99.90
5218;DHT22;26539;51.064;6.346;2022-07-01T06:36:03;17.80;1.00
5218;DHT22;26539;51.064;6.346;2022-07-01T06:38:29;17.90;91.40
5218;DHT22;26539;51.064;6.346;2022-07-01T06:40:55;17.90;99.90
5218;DHT22;26539;51.064;6.346;2022-07-01T06:43:39;17.80;1.00
5218;DHT22;26539;51.064;6.346;2022-07-01T06:46:05;17.80;99.90
5218;DHT22;26539;51.064;6.346;2022-07-01T06:48:30;17.80;99.90
5218;DHT22;26539;51.064;6.346;2022-07-01T06:50:56;17.80;99.90
5218;DHT22;26539;51.064;6.346;2022-07-01T06:53:22;17.90;99.90
5218;DHT22;26539;51.064;6.346;2022-07-01T06:55:47;18.00;99.90
5218;DHT22;26539;51.064;6.346;2022-07-01T06:58:13;18.30;1.00
5218;DHT22;26539;51.064;6.346;2022-07-01T07:00:39;18.60;99.90
5218;DHT22;26539;51.064;6.346;2022-07-01T07:03:04;19.00;1.00
5218;DHT22;26539;51.064;6.346;2022-07-01T07:05:30;19.40;99.90
5218;DHT22;26539;51.064;6.346;2022-07-01T07:07:56;19.70;1.00
5218;DHT22;26539;51.064;6.346;2022-07-01T07:10:22;19.70;1.00
5218;DHT22;26539;51.064;6.346;2022-07-01T07:12:48;19.70;1.00
5218;DHT22;26539;51.064;6.346;2022-07-01T07:15:14;19.80;99.90
5218;DHT22;26539;51.064;6.346;2022-07-01T07:17:39;19.70;99.90
5218;DHT22;26539;51.064;6.346;2022-07-01T07:20:05;19.50;99.90
5218;DHT22;26539;51.064;6.346;2022-07-01T07:22:31;19.50;99.90
5218;DHT22;26539;51.064;6.346;2022-07-01T07:24:57;20.20;99.90
5218;DHT22;26539;51.064;6.346;2022-07-01T07:27:22;22.50;1.00
5218;DHT22;26539;51.064;6.346;2022-07-01T07:29:48;25.10;99.90
5218;DHT22;26539;51.064;6.346;2022-07-01T07:32:13;27.00;99.90
5218;DHT22;26539;51.064;6.346;2022-07-01T07:34:39;27.10;99.90
5218;DHT22;26539;51.064;6.346;2022-07-01T07:37:05;26.50;99.90
5218;DHT22;26539;51.064;6.346;2022-07-01T07:39:31;25.80;99.90
5218;DHT22;26539;51.064;6.346;2022-07-01T07:41:57;24.90;99.90
5218;DHT22;26539;51.064;6.346;2022-07-01T07:44:23;25.30;99.90
5218;DHT22;26539;51.064;6.346;2022-07-01T07:46:49;26.30;99.90
5218;DHT22;26539;51.064;6.346;2022-07-01T07:49:15;25.60;99.90
5218;DHT22;26539;51.064;6.346;2022-07-01T07:51:40;25.10;99.90
5218;DHT22;26539;51.064;6.346;2022-07-01T07:54:06;28.00;99.90
5218;DHT22;26539;51.064;6.346;2022-07-01T07:56:32;33.10;99.90
5218;DHT22;26539;51.064;6.346;2022-07-01T07:58:57;32.70;99.90
5218;DHT22;26539;51.064;6.346;2022-07-01T08:01:23;36.20;99.90
5218;DHT22;26539;51.064;6.346;2022-07-01T08:03:49;35.20;99.90
5218;DHT22;26539;51.064;6.346;2022-07-01T08:06:14;32.80;99.90
5218;DHT22;26539;51.064;6.346;2022-07-01T08:08:40;30.60;99.90
5218;DHT22;26539;51.064;6.346;2022-07-01T08:11:05;28.80;99.90
5218;DHT22;26539;51.064;6.346;2022-07-01T08:13:31;27.40;99.90
5218;DHT22;26539;51.064;6.346;2022-07-01T08:15:57;26.20;99.90
5218;DHT22;26539;51.064;6.346;2022-07-01T08:18:23;28.10;99.90
5218;DHT22;26539;51.064;6.346;2022-07-01T08:20:48;28.70;99.90
5218;DHT22;26539;51.064;6.346;2022-07-01T08:23:18;27.10;99.90
5218;DHT22;26539;51.064;6.346;2022-07-01T08:25:44;28.40;99.90
5218;DHT22;26539;51.064;6.346;2022-07-01T08:28:09;33.50;99.90
5218;DHT22;26539;51.064;6.346;2022-07-01T08:30:35;38.50;99.90
5218;DHT22;26539;51.064;6.346;2022-07-01T08:33:01;40.90;99.90
5218;DHT22;26539;51.064;6.346;2022-07-01T08:35:26;42.80;99.90
5218;DHT22;26539;51.064;6.346;2022-07-01T08:37:52;40.50;99.90
5218;DHT22;26539;51.064;6.346;2022-07-01T08:40:24;36.90;99.90
5218;DHT22;26539;51.064;6.346;2022-07-01T08:42:50;34.90;99.90
5218;DHT22;26539;51.064;6.346;2022-07-01T08:45:16;32.90;99.90
5218;DHT22;26539;51.064;6.346;2022-07-01T08:47:52;31.70;99.90
5218;DHT22;26539;51.064;6.346;2022-07-01T08:50:20;30.80;99.90
5218;DHT22;26539;51.064;6.346;2022-07-01T08:52:45;31.10;99.90
5218;DHT22;26539;51.064;6.346;2022-07-01T08:55:11;31.10;99.90
5218;DHT22;26539;51.064;6.346;2022-07-01T08:57:37;31.30;99.90
5218;DHT22;26539;51.064;6.346;2022-07-01T09:00:04;33.20;99.90
5218;DHT22;26539;51.064;6.346;2022-07-01T09:05:22;37.30;99.90
5218;DHT22;26539;51.064;6.346;2022-07-01T09:07:49;39.00;99.90
5218;DHT22;26539;51.064;6.346;2022-07-01T09:10:19;40.20;99.90
5218;DHT22;26539;51.064;6.346;2022-07-01T09:12:46;40.60;99.90
5218;DHT22;26539;51.064;6.346;2022-07-01T09:15:24;39.30;99.90
5218;DHT22;26539;51.064;6.346;2022-07-01T09:18:02;37.70;96.80
5218;DHT22;26539;51.064;6.346;2022-07-01T09:20:37;38.40;97.50
5218;DHT22;26539;51.064;6.346;2022-07-01T09:23:11;37.10;92.10
5218;DHT22;26539;51.064;6.346;2022-07-01T09:25:41;36.40;90.20
5218;DHT22;26539;51.064;6.346;2022-07-01T09:28:20;35.40;85.60
5218;DHT22;26539;51.064;6.346;2022-07-01T09:30:48;35.70;86.40
5218;DHT22;26539;51.064;6.346;2022-07-01T09:33:18;34.80;80.50
5218;DHT22;26539;51.064;6.346;2022-07-01T09:35:45;34.10;77.30
5218;DHT22;26539;51.064;6.346;2022-07-01T09:38:13;35.30;83.50
5218;DHT22;26539;51.064;6.346;2022-07-01T09:41:02;36.60;85.20
5218;DHT22;26539;51.064;6.346;2022-07-01T09:43:28;36.90;83.30
5218;DHT22;26539;51.064;6.346;2022-07-01T09:46:10;35.70;77.30
5218;DHT22;26539;51.064;6.346;2022-07-01T09:51:04;32.20;62.80
5218;DHT22;26539;51.064;6.346;2022-07-01T09:53:30;30.80;57.90
5218;DHT22;26539;51.064;6.346;2022-07-01T09:55:56;30.70;58.90
5218;DHT22;26539;51.064;6.346;2022-07-01T09:58:22;33.80;76.30
5218;DHT22;26539;51.064;6.346;2022-07-01T10:00:48;36.40;84.60
5218;DHT22;26539;51.064;6.346;2022-07-01T10:03:14;38.00;86.40
5218;DHT22;26539;51.064;6.346;2022-07-01T10:05:47;38.20;94.80
5218;DHT22;26539;51.064;6.346;2022-07-01T10:14:14;36.30;67.60
5218;DHT22;26539;51.064;6.346;2022-07-01T10:16:49;35.90;65.20
5218;DHT22;26539;51.064;6.346;2022-07-01T10:21:50;36.50;63.40
5218;DHT22;26539;51.064;6.346;2022-07-01T10:24:18;35.40;58.70
5218;DHT22;26539;51.064;6.346;2022-07-01T10:26:44;35.80;60.60
5218;DHT22;26539;51.064;6.346;2022-07-01T10:29:36;36.90;64.70
5218;DHT22;26539;51.064;6.346;2022-07-01T10:32:08;38.30;68.00
5218;DHT22;26539;51.064;6.346;2022-07-01T10:34:41;39.20;67.40
5218;DHT22;26539;51.064;6.346;2022-07-01T10:37:10;39.00;63.70
5218;DHT22;26539;51.064;6.346;2022-07-01T10:39:54;39.80;63.80
5218;DHT22;26539;51.064;6.346;2022-07-01T10:45:20;39.90;59.20
5218;DHT22;26539;51.064;6.346;2022-07-01T10:47:46;40.00;58.70
5218;DHT22;26539;51.064;6.346;2022-07-01T10:50:13;40.40;58.30
5218;DHT22;26539;51.064;6.346;2022-07-01T10:53:03;40.60;57.10
5218;DHT22;26539;51.064;6.346;2022-07-01T10:55:40;38.70;50.40
5218;DHT22;26539;51.064;6.346;2022-07-01T10:58:06;37.00;46.80
5218;DHT22;26539;51.064;6.346;2022-07-01T11:00:33;35.80;45.20
5218;DHT22;26539;51.064;6.346;2022-07-01T11:03:11;34.40;41.10
5218;DHT22;26539;51.064;6.346;2022-07-01T11:05:37;35.00;45.20
5218;DHT22;26539;51.064;6.346;2022-07-01T11:08:05;34.80;44.90
5218;DHT22;26539;51.064;6.346;2022-07-01T11:10:31;33.70;41.50
5218;DHT22;26539;51.064;6.346;2022-07-01T11:12:57;33.70;42.90
5218;DHT22;26539;51.064;6.346;2022-07-01T11:15:24;34.50;47.00
5218;DHT22;26539;51.064;6.346;2022-07-01T11:17:51;35.60;50.20
5218;DHT22;26539;51.064;6.346;2022-07-01T11:20:17;36.60;53.30
5218;DHT22;26539;51.064;6.346;2022-07-01T11:22:42;37.10;52.90
5218;DHT22;26539;51.064;6.346;2022-07-01T11:25:12;37.00;51.90
5218;DHT22;26539;51.064;6.346;2022-07-01T11:27:39;37.50;52.60
5218;DHT22;26539;51.064;6.346;2022-07-01T11:30:10;37.30;50.80
5218;DHT22;26539;51.064;6.346;2022-07-01T11:35:08;37.90;51.40
5218;DHT22;26539;51.064;6.346;2022-07-01T11:40:58;37.40;47.80
5218;DHT22;26539;51.064;6.346;2022-07-01T11:43:26;37.50;47.50
5218;DHT22;26539;51.064;6.346;2022-07-01T11:45:52;37.20;45.20
5218;DHT22;26539;51.064;6.346;2022-07-01T11:51:14;36.60;43.00
5218;DHT22;26539;51.064;6.346;2022-07-01T11:53:52;35.70;40.30
5218;DHT22;26539;51.064;6.346;2022-07-01T11:56:30;34.60;37.70
5218;DHT22;26539;51.064;6.346;2022-07-01T11:58:56;33.80;36.40
5218;DHT22;26539;51.064;6.346;2022-07-01T12:01:24;33.00;34.60
5218;DHT22;26539;51.064;6.346;2022-07-01T12:03:50;32.40;34.20
5218;DHT22;26539;51.064;6.346;2022-07-01T12:06:17;32.60;37.50
5218;DHT22;26539;51.064;6.346;2022-07-01T12:08:48;32.50;38.50
5218;DHT22;26539;51.064;6.346;2022-07-01T12:11:15;32.00;36.60
5218;DHT22;26539;51.064;6.346;2022-07-01T12:13:40;31.60;35.10
5218;DHT22;26539;51.064;6.346;2022-07-01T12:16:08;31.90;37.50
5218;DHT22;26539;51.064;6.346;2022-07-01T12:18:33;31.40;37.00
5218;DHT22;26539;51.064;6.346;2022-07-01T12:21:01;30.80;35.30
5218;DHT22;26539;51.064;6.346;2022-07-01T12:23:26;30.40;35.90
5218;DHT22;26539;51.064;6.346;2022-07-01T12:25:52;30.40;36.50
5218;DHT22;26539;51.064;6.346;2022-07-01T12:28:31;31.80;42.10
5218;DHT22;26539;51.064;6.346;2022-07-01T12:31:08;32.70;45.70
5218;DHT22;26539;51.064;6.346;2022-07-01T12:33:37;33.50;48.10
5218;DHT22;26539;51.064;6.346;2022-07-01T12:36:05;34.00;49.50
5218;DHT22;26539;51.064;6.346;2022-07-01T12:38:32;33.30;46.80
5218;DHT22;26539;51.064;6.346;2022-07-01T12:40:58;33.20;45.60
5218;DHT22;26539;51.064;6.346;2022-07-01T12:43:25;33.60;46.30
5218;DHT22;26539;51.064;6.346;2022-07-01T12:45:54;33.70;59.10
5218;DHT22;26539;51.064;6.346;2022-07-01T12:48:19;33.70;46.20
5218;DHT22;26539;51.064;6.346;2022-07-01T12:50:45;33.80;46.90
5218;DHT22;26539;51.064;6.346;2022-07-01T12:53:17;33.90;47.60
5218;DHT22;26539;51.064;6.346;2022-07-01T12:55:48;33.10;42.90
5218;DHT22;26539;51.064;6.346;2022-07-01T12:58:22;32.70;41.90
5218;DHT22;26539;51.064;6.346;2022-07-01T13:00:51;32.80;42.40
5218;DHT22;26539;51.064;6.346;2022-07-01T13:03:27;33.00;42.80
5218;DHT22;26539;51.064;6.346;2022-07-01T13:05:54;32.70;42.40
5218;DHT22;26539;51.064;6.346;2022-07-01T13:08:20;32.70;43.00
5218;DHT22;26539;51.064;6.346;2022-07-01T13:10:47;32.60;43.40
5218;DHT22;26539;51.064;6.346;2022-07-01T13:13:13;32.60;42.60
5218;DHT22;26539;51.064;6.346;2022-07-01T13:15:40;32.50;42.80
5218;DHT22;26539;51.064;6.346;2022-07-01T13:18:05;32.70;44.40
5218;DHT22;26539;51.064;6.346;2022-07-01T13:20:31;32.50;43.50
5218;DHT22;26539;51.064;6.346;2022-07-01T13:22:57;31.80;40.50
5218;DHT22;26539;51.064;6.346;2022-07-01T13:25:23;31.60;40.50
5218;DHT22;26539;51.064;6.346;2022-07-01T13:27:49;31.50;41.00
5218;DHT22;26539;51.064;6.346;2022-07-01T13:30:17;30.90;38.90
5218;DHT22;26539;51.064;6.346;2022-07-01T13:32:43;30.30;37.40
5218;DHT22;26539;51.064;6.346;2022-07-01T13:35:10;29.90;37.80
5218;DHT22;26539;51.064;6.346;2022-07-01T13:37:37;29.40;36.80
5218;DHT22;26539;51.064;6.346;2022-07-01T13:40:03;29.20;37.70
5218;DHT22;26539;51.064;6.346;2022-07-01T13:42:28;29.20;38.30
5218;DHT22;26539;51.064;6.346;2022-07-01T13:44:54;29.50;41.40
5218;DHT22;26539;51.064;6.346;2022-07-01T13:47:21;30.10;43.90
5218;DHT22;26539;51.064;6.346;2022-07-01T13:49:46;30.40;44.30
5218;DHT22;26539;51.064;6.346;2022-07-01T13:52:12;30.70;45.00
5218;DHT22;26539;51.064;6.346;2022-07-01T13:54:38;30.60;43.30
5218;DHT22;26539;51.064;6.346;2022-07-01T13:57:04;30.20;56.70
5218;DHT22;26539;51.064;6.346;2022-07-01T13:59:30;29.70;42.50
5218;DHT22;26539;51.064;6.346;2022-07-01T14:01:56;29.20;41.60
5218;DHT22;26539;51.064;6.346;2022-07-01T14:04:22;28.60;40.60
5218;DHT22;26539;51.064;6.346;2022-07-01T14:06:47;28.30;40.80
5218;DHT22;26539;51.064;6.346;2022-07-01T14:09:13;28.20;41.50
5218;DHT22;26539;51.064;6.346;2022-07-01T14:11:38;28.00;54.10
5218;DHT22;26539;51.064;6.346;2022-07-01T14:14:04;27.90;41.80
5218;DHT22;26539;51.064;6.346;2022-07-01T14:16:30;27.90;42.50
5218;DHT22;26539;51.064;6.346;2022-07-01T14:18:56;28.00;44.30
5218;DHT22;26539;51.064;6.346;2022-07-01T14:21:23;28.20;45.70
5218;DHT22;26539;51.064;6.346;2022-07-01T14:23:49;28.30;46.70
5218;DHT22;26539;51.064;6.346;2022-07-01T14:26:14;28.30;48.00
5218;DHT22;26539;51.064;6.346;2022-07-01T14:28:40;28.30;48.10
5218;DHT22;26539;51.064;6.346;2022-07-01T14:31:09;28.20;47.10
5218;DHT22;26539;51.064;6.346;2022-07-01T14:33:35;28.00;46.60
5218;DHT22;26539;51.064;6.346;2022-07-01T14:36:01;27.70;46.10
5218;DHT22;26539;51.064;6.346;2022-07-01T14:38:26;27.30;45.00
5218;DHT22;26539;51.064;6.346;2022-07-01T14:40:52;27.10;45.00
5218;DHT22;26539;51.064;6.346;2022-07-01T14:43:18;27.00;45.10
5218;DHT22;26539;51.064;6.346;2022-07-01T14:45:44;26.90;44.60
5218;DHT22;26539;51.064;6.346;2022-07-01T14:48:10;26.80;43.90
5218;DHT22;26539;51.064;6.346;2022-07-01T14:50:36;26.70;43.00
5218;DHT22;26539;51.064;6.346;2022-07-01T14:53:02;26.70;42.70
5218;DHT22;26539;51.064;6.346;2022-07-01T14:55:29;26.70;43.00
5218;DHT22;26539;51.064;6.346;2022-07-01T14:57:55;26.70;43.60
5218;DHT22;26539;51.064;6.346;2022-07-01T15:00:21;26.70;44.50
5218;DHT22;26539;51.064;6.346;2022-07-01T15:02:47;26.80;45.70
5218;DHT22;26539;51.064;6.346;2022-07-01T15:05:12;26.80;46.10
5218;DHT22;26539;51.064;6.346;2022-07-01T15:07:38;26.80;46.20
5218;DHT22;26539;51.064;6.346;2022-07-01T15:10:05;26.70;46.10
5218;DHT22;26539;51.064;6.346;2022-07-01T15:12:31;26.80;46.10
5218;DHT22;26539;51.064;6.346;2022-07-01T15:14:57;27.00;47.30
5218;DHT22;26539;51.064;6.346;2022-07-01T15:17:23;27.20;48.50
5218;DHT22;26539;51.064;6.346;2022-07-01T15:19:49;27.20;48.80
5218;DHT22;26539;51.064;6.346;2022-07-01T15:22:14;27.20;49.00
5218;DHT22;26539;51.064;6.346;2022-07-01T15:24:40;27.10;48.80
5218;DHT22;26539;51.064;6.346;2022-07-01T15:27:06;27.10;48.10
5218;DHT22;26539;51.064;6.346;2022-07-01T15:29:32;27.10;48.60
5218;DHT22;26539;51.064;6.346;2022-07-01T15:31:58;27.10;48.90
5218;DHT22;26539;51.064;6.346;2022-07-01T15:34:24;27.00;49.50
5218;DHT22;26539;51.064;6.346;2022-07-01T15:36:49;26.90;48.60
5218;DHT22;26539;51.064;6.346;2022-07-01T15:39:15;26.80;49.00
5218;DHT22;26539;51.064;6.346;2022-07-01T15:41:42;26.70;49.60
5218;DHT22;26539;51.064;6.346;2022-07-01T15:44:08;26.70;49.90
5218;DHT22;26539;51.064;6.346;2022-07-01T15:46:34;26.70;50.00
5218;DHT22;26539;51.064;6.346;2022-07-01T15:49:00;26.70;49.50
5218;DHT22;26539;51.064;6.346;2022-07-01T15:51:25;26.60;49.90
5218;DHT22;26539;51.064;6.346;2022-07-01T15:53:53;26.60;49.10
5218;DHT22;26539;51.064;6.346;2022-07-01T15:56:20;26.60;49.10
5218;DHT22;26539;51.064;6.346;2022-07-01T15:58:45;26.70;50.10
5218;DHT22;26539;51.064;6.346;2022-07-01T16:01:11;26.70;50.40
5218;DHT22;26539;51.064;6.346;2022-07-01T16:03:36;26.60;48.70
5218;DHT22;26539;51.064;6.346;2022-07-01T16:06:10;26.60;48.80
5218;DHT22;26539;51.064;6.346;2022-07-01T16:08:37;26.50;48.50
5218;DHT22;26539;51.064;6.346;2022-07-01T16:11:10;26.40;47.50
5218;DHT22;26539;51.064;6.346;2022-07-01T16:13:42;26.30;47.30
5218;DHT22;26539;51.064;6.346;2022-07-01T16:16:08;26.10;45.60